createdAt,value
2022-10-22T00:02:17.286Z,2.1
2022-10-22T00:05:17.312Z,2.95
2022-10-22T00:08:17.381Z,2.65
2022-10-22T00:11:17.325Z,3.25
2022-10-22T00:14:17.227Z,1.45
2022-10-22T00:17:17.321Z,1.95
2022-10-22T00:20:17.282Z,2
2022-10-22T00:23:17.358Z,1.9
2022-10-22T00:26:17.270Z,1.9
2022-10-22T00:29:17.245Z,2.8
2022-10-22T00:32:17.277Z,1.65
2022-10-22T00:35:17.296Z,2.3
2022-10-22T00:38:17.281Z,1.25
2022-10-22T00:41:17.287Z,2.25
2022-10-22T00:44:17.265Z,2.7
2022-10-22T00:47:17.370Z,1.45
2022-10-22T00:50:17.275Z,2.9
2022-10-22T00:53:17.276Z,1.85
2022-10-22T00:56:17.312Z,2.75
2022-10-22T00:59:17.278Z,1.7
2022-10-22T01:02:17.340Z,1.6
2022-10-22T01:05:17.290Z,3
2022-10-22T01:08:17.347Z,1.4
2022-10-22T01:11:17.342Z,1.5
2022-10-22T01:14:17.327Z,1.35
2022-10-22T01:17:17.431Z,1.4
2022-10-22T01:20:17.318Z,0.95
2022-10-22T01:23:17.318Z,3.15
2022-10-22T01:26:17.456Z,0.95
2022-10-22T01:29:17.351Z,1.85
2022-10-22T01:32:17.336Z,1.65
2022-10-22T01:35:17.353Z,1.2
2022-10-22T01:38:17.354Z,1.75
2022-10-22T01:41:17.326Z,1.8
2022-10-22T01:44:17.341Z,2.05
2022-10-22T01:47:17.355Z,1.7
2022-10-22T01:50:17.397Z,2.4
2022-10-22T01:53:17.377Z,1.05
2022-10-22T01:56:17.371Z,2.05
2022-10-22T01:59:17.376Z,2.05
2022-10-22T02:02:17.426Z,1.5
2022-10-22T02:05:17.397Z,2.75
2022-10-22T02:08:17.341Z,1.85
2022-10-22T02:11:17.404Z,1.85
2022-10-22T02:14:17.453Z,2
2022-10-22T02:17:17.412Z,1.8
2022-10-22T02:20:17.396Z,1.75
2022-10-22T02:23:17.406Z,1.95
2022-10-22T02:26:17.470Z,2.3
2022-10-22T02:29:17.402Z,1.9
2022-10-22T02:32:17.507Z,1.8
2022-10-22T02:35:17.451Z,0.9
2022-10-22T02:38:17.486Z,1.4
2022-10-22T02:41:17.451Z,1.35
2022-10-22T02:44:17.437Z,1.45
2022-10-22T02:47:17.442Z,1.05
2022-10-22T02:50:17.433Z,1.15
2022-10-22T02:53:17.471Z,0.9
2022-10-22T02:56:17.532Z,1
2022-10-22T02:59:17.386Z,0.65
2022-10-22T03:02:17.417Z,1.25
2022-10-22T03:05:17.528Z,1.4
2022-10-22T03:08:17.389Z,1.5
2022-10-22T03:11:17.497Z,0.75
2022-10-22T03:14:17.441Z,2.2
2022-10-22T03:17:17.456Z,2.25
2022-10-22T03:20:17.406Z,0.9
2022-10-22T03:23:17.434Z,2.25
2022-10-22T03:26:17.421Z,0.75
2022-10-22T03:29:17.451Z,1.05
2022-10-22T03:32:17.455Z,1.25
2022-10-22T03:35:17.502Z,1.15
2022-10-22T03:38:17.516Z,0.95
2022-10-22T03:41:17.452Z,1.05
2022-10-22T03:44:17.528Z,1.3
2022-10-22T03:47:17.446Z,1.15
2022-10-22T03:50:17.551Z,1.05
2022-10-22T03:53:17.451Z,1
2022-10-22T03:56:17.506Z,0.75
2022-10-22T03:59:17.483Z,0.7
2022-10-22T04:02:17.528Z,0.7
2022-10-22T04:05:17.558Z,0.25
2022-10-22T04:08:17.456Z,0.85
2022-10-22T04:11:17.436Z,0.8
2022-10-22T04:14:17.452Z,0.95
2022-10-22T04:17:17.487Z,0.7
2022-10-22T04:20:17.473Z,0.8
2022-10-22T04:23:17.512Z,1.05
2022-10-22T04:26:17.511Z,1.75
2022-10-22T04:29:17.476Z,1.2
2022-10-22T04:32:17.572Z,1.05
2022-10-22T04:35:17.693Z,1.1
2022-10-22T04:38:17.538Z,1.15
2022-10-22T04:41:17.581Z,1.35
2022-10-22T04:44:19.131Z,0.9
2022-10-22T04:47:17.626Z,1.45
2022-10-22T04:50:17.656Z,0.65
2022-10-22T04:53:17.523Z,0.95
2022-10-22T04:56:17.575Z,0.85
2022-10-22T04:59:17.586Z,1.5
2022-10-22T05:02:17.616Z,0.9
2022-10-22T05:05:17.561Z,1.15
2022-10-22T05:08:17.507Z,1.1
2022-10-22T05:11:17.567Z,0.85
2022-10-22T05:14:17.528Z,0.8
2022-10-22T05:17:17.514Z,0.95
2022-10-22T05:20:17.566Z,0.85
2022-10-22T05:23:17.546Z,1.05
2022-10-22T05:26:17.607Z,1.3
2022-10-22T05:29:17.617Z,1.1
2022-10-22T05:32:17.528Z,0.95
2022-10-22T05:35:17.587Z,1.5
2022-10-22T05:38:17.582Z,1.45
2022-10-22T05:41:17.669Z,1.2
2022-10-22T05:44:17.573Z,0.8
2022-10-22T05:47:17.598Z,1.25
2022-10-22T05:50:17.528Z,0.75
2022-10-22T05:53:17.581Z,1.4
2022-10-22T05:56:17.597Z,1.15
2022-10-22T05:59:17.603Z,0.95
2022-10-22T06:02:17.661Z,0.8
2022-10-22T06:05:17.577Z,0.35
2022-10-22T06:08:20.007Z,0.5
2022-10-22T06:11:17.621Z,0.7
2022-10-22T06:14:17.576Z,0.55
2022-10-22T06:17:17.606Z,0.5
2022-10-22T06:20:17.566Z,0.55
2022-10-22T06:23:17.607Z,1.1
2022-10-22T06:26:17.589Z,0.7
2022-10-22T06:29:17.573Z,1.4
2022-10-22T06:32:17.637Z,1.5
2022-10-22T06:35:17.586Z,1.5
2022-10-22T06:38:17.601Z,1.55
2022-10-22T06:41:17.599Z,1.05
2022-10-22T06:44:17.627Z,0.85
2022-10-22T06:47:17.634Z,0.65
2022-10-22T06:50:17.611Z,0.65
2022-10-22T06:53:17.659Z,0.6
2022-10-22T06:56:17.691Z,0.4
2022-10-22T06:59:17.617Z,0.5
2022-10-22T07:02:17.678Z,0.55
2022-10-22T07:05:17.649Z,0.85
2022-10-22T07:08:17.656Z,0.5
2022-10-22T07:11:17.643Z,0.8
2022-10-22T07:14:17.686Z,0.25
2022-10-22T07:17:17.667Z,0.8
2022-10-22T07:20:17.615Z,0.25
2022-10-22T07:23:17.653Z,0.95
2022-10-22T07:26:17.621Z,0.55
2022-10-22T07:29:17.721Z,0.4
2022-10-22T07:32:24.572Z,0.5
2022-10-22T07:35:17.647Z,0.55
2022-10-22T07:38:17.623Z,0.3
2022-10-22T07:41:17.679Z,0.25
2022-10-22T07:44:17.637Z,0.25
2022-10-22T07:47:17.707Z,0.65
2022-10-22T07:50:17.693Z,0.45
2022-10-22T07:53:17.651Z,0.75
2022-10-22T07:56:17.696Z,0.6
2022-10-22T07:59:17.699Z,0.6
2022-10-22T08:02:17.649Z,0.5
2022-10-22T08:05:17.722Z,0.4
2022-10-22T08:08:17.661Z,0.25
2022-10-22T08:11:27.682Z,0.15
2022-10-22T08:14:17.628Z,0.45
2022-10-22T08:17:17.758Z,0.45
2022-10-22T08:20:17.777Z,0.9
2022-10-22T08:23:17.702Z,0.85
2022-10-22T08:26:17.756Z,0.65
2022-10-22T08:29:17.697Z,0.7
2022-10-22T08:32:17.818Z,0.7
2022-10-22T08:35:18.749Z,0.5
2022-10-22T08:38:17.737Z,1.05
2022-10-22T08:41:17.683Z,0.7
2022-10-22T08:44:17.691Z,0.55
2022-10-22T08:47:22.619Z,0.55
2022-10-22T08:50:17.693Z,0.9
2022-10-22T08:53:17.763Z,0.5
2022-10-22T08:56:17.775Z,0.6
2022-10-22T08:59:17.747Z,0.5
2022-10-22T09:02:17.722Z,0.5
2022-10-22T09:05:17.728Z,0.35
2022-10-22T09:08:17.713Z,0.4
2022-10-22T09:11:17.724Z,0.65
2022-10-22T09:14:17.787Z,0.35
2022-10-22T09:17:17.692Z,0.9
2022-10-22T09:20:17.950Z,0.9
2022-10-22T09:23:17.727Z,0.9
2022-10-22T09:26:17.774Z,1.45
2022-10-22T09:29:17.959Z,1.25
2022-10-22T09:32:17.783Z,0.8
2022-10-22T09:35:17.807Z,1.25
2022-10-22T09:38:17.747Z,1.65
2022-10-22T09:41:17.787Z,1.05
2022-10-22T09:44:17.768Z,1.7
2022-10-22T09:47:17.755Z,2.15
2022-10-22T09:50:17.929Z,1.85
2022-10-22T09:53:17.701Z,2.5
2022-10-22T09:56:17.827Z,2.05
2022-10-22T09:59:17.742Z,1.75
2022-10-22T10:02:37.347Z,1.35
2022-10-22T10:05:17.793Z,1
2022-10-22T10:08:17.794Z,1.4
2022-10-22T10:11:17.846Z,1.5
2022-10-22T10:14:17.823Z,1.65
2022-10-22T10:17:17.767Z,2.25
2022-10-22T10:20:17.802Z,2.2
2022-10-22T10:23:21.682Z,1.2
2022-10-22T10:26:17.854Z,1.65
2022-10-22T10:29:17.882Z,2.3
2022-10-22T10:32:23.538Z,1.25
2022-10-22T10:35:17.792Z,2
2022-10-22T10:38:17.833Z,1.35
2022-10-22T10:41:17.823Z,1.7
2022-10-22T10:44:17.916Z,1.55
2022-10-22T10:47:17.834Z,1.8
2022-10-22T10:50:17.848Z,1.6
2022-10-22T10:53:17.897Z,1.6
2022-10-22T10:56:17.858Z,2.1
2022-10-22T10:59:17.834Z,1.5
2022-10-22T11:02:17.834Z,1.6
2022-10-22T11:05:17.840Z,2.65
2022-10-22T11:08:17.852Z,1.5
2022-10-22T11:11:22.739Z,1.35
2022-10-22T11:14:17.877Z,1.45
2022-10-22T11:17:17.855Z,1.05
2022-10-22T11:20:17.885Z,1.35
2022-10-22T11:23:21.703Z,1.75
2022-10-22T11:26:17.843Z,1.25
2022-10-22T11:29:17.878Z,1.35
2022-10-22T11:32:17.845Z,2.15
2022-10-22T11:35:19.355Z,1.6
2022-10-22T11:38:17.870Z,1.6
2022-10-22T11:41:17.903Z,1.25
2022-10-22T11:44:17.887Z,2.05
2022-10-22T11:47:17.883Z,1.2
2022-10-22T11:50:17.830Z,1.55
2022-10-22T11:53:17.893Z,1.65
2022-10-22T11:56:17.876Z,1.2
2022-10-22T11:59:18.028Z,1.8
2022-10-22T12:02:17.877Z,1.55
2022-10-22T12:05:17.919Z,1.35
2022-10-22T12:08:17.878Z,2.45
2022-10-22T12:11:17.921Z,1.85
2022-10-22T12:14:17.876Z,1.9
2022-10-22T12:17:17.946Z,1.6
2022-10-22T12:20:17.923Z,2.2
2022-10-22T12:23:17.929Z,1
2022-10-22T12:26:17.999Z,1
2022-10-22T12:29:17.964Z,1.85
2022-10-22T12:32:17.890Z,1.35
2022-10-22T12:35:17.915Z,1.15
2022-10-22T12:38:18.068Z,1.85
2022-10-22T12:41:17.889Z,1.75
2022-10-22T12:44:18.040Z,1.6
2022-10-22T12:47:17.890Z,1.45
2022-10-22T12:50:17.939Z,1.35
2022-10-22T12:53:17.953Z,0.9
2022-10-22T12:56:17.912Z,1
2022-10-22T12:59:17.935Z,1.05
2022-10-22T13:02:17.925Z,1.15
2022-10-22T13:05:17.961Z,2.25
2022-10-22T13:08:18.003Z,1.15
2022-10-22T13:11:17.983Z,1.5
2022-10-22T13:14:18.012Z,1.15
2022-10-22T13:17:17.927Z,1.15
2022-10-22T13:20:17.934Z,1.6
2022-10-22T13:23:17.974Z,1.2
2022-10-22T13:26:17.950Z,1.25
2022-10-22T13:29:18.132Z,0.95
2022-10-22T13:32:18.007Z,0.85
2022-10-22T13:35:17.988Z,1.45
2022-10-22T13:38:17.978Z,1
2022-10-22T13:41:17.993Z,1
2022-10-22T13:44:18.000Z,0.9
2022-10-22T13:47:17.990Z,0.65
2022-10-22T13:50:17.987Z,0.75
2022-10-22T13:53:19.827Z,0.7
2022-10-22T13:56:18.129Z,0.7
2022-10-22T13:59:24.702Z,0.3
2022-10-22T14:02:18.009Z,1.35
2022-10-22T14:05:18.030Z,0.4
2022-10-22T14:08:18.032Z,0.5
2022-10-22T14:11:18.017Z,0.35
2022-10-22T14:14:18.144Z,0.3
2022-10-22T14:17:18.004Z,0
2022-10-22T14:20:18.029Z,0.35
2022-10-22T14:23:22.859Z,0.15
2022-10-22T14:26:18.008Z,0.2
2022-10-22T14:29:18.023Z,0
2022-10-22T14:32:18.064Z,0.45
2022-10-22T14:35:18.013Z,0.6
2022-10-22T14:38:18.079Z,0.6
2022-10-22T14:41:18.038Z,0.5
2022-10-22T14:44:18.082Z,0.4
2022-10-22T14:47:18.046Z,0.4
2022-10-22T14:50:18.057Z,0.25
2022-10-22T14:53:18.048Z,0.15
2022-10-22T14:56:18.070Z,0.2
2022-10-22T14:59:18.061Z,0.35
2022-10-22T15:02:18.069Z,0.2
2022-10-22T15:05:18.108Z,0.25
2022-10-22T15:08:18.039Z,0.25
2022-10-22T15:11:18.095Z,0.25
2022-10-22T15:14:18.089Z,0.3
2022-10-22T15:17:18.075Z,0.3
2022-10-22T15:20:18.076Z,0.6
2022-10-22T15:23:18.138Z,0.7
2022-10-22T15:26:18.142Z,0.55
2022-10-22T15:29:18.078Z,0.3
2022-10-22T15:32:18.096Z,0.25
2022-10-22T15:35:18.065Z,0.4
2022-10-22T15:38:18.158Z,0.35
2022-10-22T15:41:23.766Z,0.35
2022-10-22T15:44:18.065Z,0.25
2022-10-22T15:47:18.078Z,0.2
2022-10-22T15:50:18.091Z,0.35
2022-10-22T15:53:18.135Z,0.4
2022-10-22T15:56:18.058Z,0.35
2022-10-22T15:59:18.159Z,0.45
2022-10-22T16:02:18.087Z,0.6
2022-10-22T16:05:18.153Z,0.3
2022-10-22T16:08:18.153Z,0.35
2022-10-22T16:11:18.103Z,0.4
2022-10-22T16:14:18.110Z,0.55
2022-10-22T16:17:18.099Z,0.4
2022-10-22T16:20:18.121Z,0.35
2022-10-22T16:23:18.163Z,0.2
2022-10-22T16:26:18.160Z,0.35
2022-10-22T16:29:18.129Z,0.3
2022-10-22T16:32:18.123Z,0.3
2022-10-22T16:35:18.106Z,0.4
2022-10-22T16:38:18.134Z,0.4
2022-10-22T16:41:18.153Z,0.3
2022-10-22T16:44:18.169Z,0.45
2022-10-22T16:47:18.181Z,0.15
2022-10-22T16:50:18.179Z,0
2022-10-22T16:53:18.160Z,0
2022-10-22T16:56:18.176Z,0
2022-10-22T16:59:18.198Z,0
2022-10-22T17:02:18.189Z,0
2022-10-22T17:05:18.145Z,0
2022-10-22T17:08:18.206Z,0.3
2022-10-22T17:11:18.220Z,0.2
2022-10-22T17:14:18.204Z,0.25
2022-10-22T17:17:18.206Z,0.45
2022-10-22T17:20:18.201Z,0.25
2022-10-22T17:23:18.166Z,0.25
2022-10-22T17:26:18.217Z,0.3
2022-10-22T17:29:18.143Z,0
2022-10-22T17:32:18.269Z,0.45
2022-10-22T17:35:18.246Z,0.25
2022-10-22T17:38:18.227Z,0.45
2022-10-22T17:41:18.169Z,0.9
2022-10-22T17:44:18.251Z,1.05
2022-10-22T17:47:18.236Z,1.1
2022-10-22T17:50:18.205Z,1.2
2022-10-22T17:53:18.219Z,1.15
2022-10-22T17:56:18.170Z,0.9
2022-10-22T17:59:18.230Z,1.4
2022-10-22T18:02:18.236Z,1.25
2022-10-22T18:05:18.244Z,1.55
2022-10-22T18:08:18.175Z,1
2022-10-22T18:11:18.252Z,1.2
2022-10-22T18:14:18.219Z,0.75
2022-10-22T18:17:18.218Z,1
2022-10-22T18:20:18.266Z,1.25
2022-10-22T18:23:18.229Z,1.25
2022-10-22T18:26:21.375Z,0.9
2022-10-22T18:29:18.261Z,1.1
2022-10-22T18:32:18.258Z,1.35
2022-10-22T18:35:18.302Z,0.8
2022-10-22T18:38:18.241Z,1.35
2022-10-22T18:41:18.264Z,1.35
2022-10-22T18:44:18.243Z,1.85
2022-10-22T18:47:18.323Z,1.65
2022-10-22T18:50:18.373Z,1.6
2022-10-22T18:53:18.220Z,0.8
2022-10-22T18:56:18.230Z,0.6
2022-10-22T18:59:18.324Z,0.55
2022-10-22T19:02:18.274Z,0.75
2022-10-22T19:05:18.230Z,0.9
2022-10-22T19:08:18.269Z,0.65
2022-10-22T19:11:18.365Z,0.45
2022-10-22T19:14:18.289Z,1.55
2022-10-22T19:17:18.256Z,0.9
2022-10-22T19:20:18.319Z,0.7
2022-10-22T19:23:21.699Z,0.75
2022-10-22T19:26:18.295Z,0.8
2022-10-22T19:29:18.291Z,1.05
2022-10-22T19:32:18.252Z,0.6
2022-10-22T19:35:18.304Z,0.45
2022-10-22T19:38:18.314Z,0.55
2022-10-22T19:41:18.292Z,0.65
2022-10-22T19:44:18.271Z,1.3
2022-10-22T19:47:18.273Z,1.25
2022-10-22T19:50:18.367Z,1.15
2022-10-22T19:53:18.288Z,0.8
2022-10-22T19:56:18.323Z,0.65
2022-10-22T19:59:18.291Z,0.65
2022-10-22T20:02:18.339Z,1.4
2022-10-22T20:05:18.355Z,0.75
2022-10-22T20:08:18.342Z,0.9
2022-10-22T20:11:18.362Z,0.7
2022-10-22T20:14:18.386Z,0.6
2022-10-22T20:17:18.365Z,0.55
2022-10-22T20:20:20.090Z,1.2
2022-10-22T20:23:18.416Z,0.85
2022-10-22T20:26:18.347Z,0.75
2022-10-22T20:29:18.399Z,1.5
2022-10-22T20:32:18.454Z,1.05
2022-10-22T20:35:18.345Z,1.4
2022-10-22T20:38:18.361Z,1.45
2022-10-22T20:41:18.480Z,1.15
2022-10-22T20:44:18.355Z,0.9
2022-10-22T20:47:18.332Z,0.85
2022-10-22T20:50:18.380Z,1.4
2022-10-22T20:53:18.370Z,0.5
2022-10-22T20:56:18.333Z,0.55
2022-10-22T20:59:18.390Z,0.8
2022-10-22T21:02:18.388Z,0.85
2022-10-22T21:05:18.370Z,1.1
2022-10-22T21:08:18.628Z,0.85
2022-10-22T21:11:18.364Z,1.2
2022-10-22T21:14:18.400Z,0.8
2022-10-22T21:17:18.350Z,1.2
2022-10-22T21:20:23.755Z,0.7
2022-10-22T21:23:18.362Z,0.95
2022-10-22T21:26:18.369Z,0.5
2022-10-22T21:29:18.379Z,1.35
2022-10-22T21:32:18.505Z,1.25
2022-10-22T21:35:18.370Z,1.45
2022-10-22T21:38:18.425Z,2.25
2022-10-22T21:41:18.436Z,2.1
2022-10-22T21:44:18.370Z,2.05
2022-10-22T21:47:18.375Z,2.05
2022-10-22T21:50:18.379Z,1.8
2022-10-22T21:53:18.430Z,1.4
2022-10-22T21:56:18.391Z,1.65
2022-10-22T21:59:18.417Z,1.55
2022-10-22T22:02:18.689Z,1.55
2022-10-22T22:05:18.424Z,2.1
2022-10-22T22:08:18.410Z,1.9
2022-10-22T22:11:18.370Z,1.9
2022-10-22T22:14:18.470Z,1.7
2022-10-22T22:17:18.508Z,1.5
2022-10-22T22:20:18.410Z,2.15
2022-10-22T22:23:18.386Z,2.05
2022-10-22T22:26:18.389Z,1.65
2022-10-22T22:29:18.446Z,1.4
2022-10-22T22:32:18.501Z,1.85
2022-10-22T22:35:18.549Z,1.55
2022-10-22T22:38:18.435Z,1.55
2022-10-22T22:41:18.451Z,1.3
2022-10-22T22:44:18.466Z,1.5
2022-10-22T22:47:18.430Z,1.05
2022-10-22T22:50:18.441Z,1.15
2022-10-22T22:53:18.427Z,1.55
2022-10-22T22:56:18.450Z,1.9
2022-10-22T22:59:18.484Z,2.15
2022-10-22T23:02:18.506Z,2.6
2022-10-22T23:05:18.500Z,1.7
2022-10-22T23:08:18.486Z,1.9
2022-10-22T23:11:18.457Z,2.6
2022-10-22T23:14:18.493Z,1.8
2022-10-22T23:17:18.457Z,2.35
2022-10-22T23:20:18.465Z,1.75
2022-10-22T23:23:18.467Z,2.45
2022-10-22T23:26:18.476Z,1.95
2022-10-22T23:29:18.511Z,1.95
2022-10-22T23:32:18.474Z,1.9
2022-10-22T23:35:18.475Z,2.1
2022-10-22T23:38:18.464Z,2.1
2022-10-22T23:41:18.482Z,2.05
2022-10-22T23:44:18.561Z,2.05
2022-10-22T23:47:18.511Z,2.1
2022-10-22T23:50:18.615Z,1.4
2022-10-22T23:53:18.499Z,1.65
2022-10-22T23:56:18.579Z,1.15
2022-10-22T23:59:18.537Z,2.55
